sensor_id;sensor_type;location;lat;lon;timestamp;P1;P2;P0
43280;PMS5003;62175;49.416;8.690;2023-04-24T00:00:56;1;1;
43280;PMS5003;62175;49.416;8.690;2023-04-24T00:03:23;0;0;
43280;PMS5003;62175;49.416;8.690;2023-04-24T00:05:50;1;1;
43280;PMS5003;62175;49.416;8.690;2023-04-24T00:08:17;0;0;
43280;PMS5003;62175;49.416;8.690;2023-04-24T00:10:44;0;0;
43280;PMS5003;62175;49.416;8.690;2023-04-24T00:13:12;1;1;
43280;PMS5003;62175;49.416;8.690;2023-04-24T00:15:39;1;1;
43280;PMS5003;62175;49.416;8.690;2023-04-24T00:18:06;0;0;
43280;PMS5003;62175;49.416;8.690;2023-04-24T00:20:33;1;1;
43280;PMS5003;62175;49.416;8.690;2023-04-24T00:23:01;1;1;
43280;PMS5003;62175;49.416;8.690;2023-04-24T00:25:28;1;1;
43280;PMS5003;62175;49.416;8.690;2023-04-24T00:27:55;0;0;
43280;PMS5003;62175;49.416;8.690;2023-04-24T00:30:22;2;1;
43280;PMS5003;62175;49.416;8.690;2023-04-24T00:32:49;1;1;
43280;PMS5003;62175;49.416;8.690;2023-04-24T00:35:16;2;1;
43280;PMS5003;62175;49.416;8.690;2023-04-24T00:37:43;2;2;
43280;PMS5003;62175;49.416;8.690;2023-04-24T00:40:11;0;0;
43280;PMS5003;62175;49.416;8.690;2023-04-24T00:42:37;1;1;
43280;PMS5003;62175;49.416;8.690;2023-04-24T00:45:07;2;2;
43280;PMS5003;62175;49.416;8.690;2023-04-24T00:47:34;1;1;
43280;PMS5003;62175;49.416;8.690;2023-04-24T00:50:02;0;0;
43280;PMS5003;62175;49.416;8.690;2023-04-24T00:52:29;1;1;
43280;PMS5003;62175;49.416;8.690;2023-04-24T00:54:56;2;1;
43280;PMS5003;62175;49.416;8.690;2023-04-24T00:57:23;0;0;
43280;PMS5003;62175;49.416;8.690;2023-04-24T00:59:50;1;1;
43280;PMS5003;62175;49.416;8.690;2023-04-24T01:02:17;1;1;
43280;PMS5003;62175;49.416;8.690;2023-04-24T01:04:45;0;0;
43280;PMS5003;62175;49.416;8.690;2023-04-24T01:07:12;0;0;
43280;PMS5003;62175;49.416;8.690;2023-04-24T01:09:40;1;1;
43280;PMS5003;62175;49.416;8.690;2023-04-24T01:12:08;0;0;
43280;PMS5003;62175;49.416;8.690;2023-04-24T01:14:36;1;0;
43280;PMS5003;62175;49.416;8.690;2023-04-24T01:17:03;0;0;
43280;PMS5003;62175;49.416;8.690;2023-04-24T01:19:31;0;0;
43280;PMS5003;62175;49.416;8.690;2023-04-24T01:21:58;1;1;
43280;PMS5003;62175;49.416;8.690;2023-04-24T01:24:28;0;0;
43280;PMS5003;62175;49.416;8.690;2023-04-24T01:26:55;1;1;
43280;PMS5003;62175;49.416;8.690;2023-04-24T01:29:22;2;1;
43280;PMS5003;62175;49.416;8.690;2023-04-24T01:31:50;1;1;
43280;PMS5003;62175;49.416;8.690;2023-04-24T01:34:18;1;1;
43280;PMS5003;62175;49.416;8.690;2023-04-24T01:36:45;1;1;
43280;PMS5003;62175;49.416;8.690;2023-04-24T01:39:13;1;1;
43280;PMS5003;62175;49.416;8.690;2023-04-24T01:41:40;0;0;
43280;PMS5003;62175;49.416;8.690;2023-04-24T01:44:07;1;1;
43280;PMS5003;62175;49.416;8.690;2023-04-24T01:46:34;2;2;
43280;PMS5003;62175;49.416;8.690;2023-04-24T01:49:02;0;0;
43280;PMS5003;62175;49.416;8.690;2023-04-24T01:51:29;2;2;
43280;PMS5003;62175;49.416;8.690;2023-04-24T01:53:56;4;1;
43280;PMS5003;62175;49.416;8.690;2023-04-24T01:56:23;1;1;
43280;PMS5003;62175;49.416;8.690;2023-04-24T01:58:51;0;0;
43280;PMS5003;62175;49.416;8.690;2023-04-24T02:01:20;0;0;
43280;PMS5003;62175;49.416;8.690;2023-04-24T02:03:47;1;1;
43280;PMS5003;62175;49.416;8.690;2023-04-24T02:06:15;0;0;
43280;PMS5003;62175;49.416;8.690;2023-04-24T02:08:42;0;0;
43280;PMS5003;62175;49.416;8.690;2023-04-24T02:11:08;1;1;
43280;PMS5003;62175;49.416;8.690;2023-04-24T02:13:36;1;1;
43280;PMS5003;62175;49.416;8.690;2023-04-24T02:16:03;0;0;
43280;PMS5003;62175;49.416;8.690;2023-04-24T02:18:30;1;1;
43280;PMS5003;62175;49.416;8.690;2023-04-24T02:20:57;3;2;
43280;PMS5003;62175;49.416;8.690;2023-04-24T02:23:24;2;2;
43280;PMS5003;62175;49.416;8.690;2023-04-24T02:25:51;1;1;
43280;PMS5003;62175;49.416;8.690;2023-04-24T02:28:18;1;1;
43280;PMS5003;62175;49.416;8.690;2023-04-24T02:30:45;1;1;
43280;PMS5003;62175;49.416;8.690;2023-04-24T02:33:12;1;0;
43280;PMS5003;62175;49.416;8.690;2023-04-24T02:35:39;0;0;
43280;PMS5003;62175;49.416;8.690;2023-04-24T02:38:07;2;2;
43280;PMS5003;62175;49.416;8.690;2023-04-24T02:40:33;1;1;
43280;PMS5003;62175;49.416;8.690;2023-04-24T02:43:00;2;2;
43280;PMS5003;62175;49.416;8.690;2023-04-24T02:45:28;0;0;
43280;PMS5003;62175;49.416;8.690;2023-04-24T02:47:55;2;2;
43280;PMS5003;62175;49.416;8.690;2023-04-24T02:50:22;1;1;
43280;PMS5003;62175;49.416;8.690;2023-04-24T02:52:49;0;0;
43280;PMS5003;62175;49.416;8.690;2023-04-24T02:55:16;1;1;
43280;PMS5003;62175;49.416;8.690;2023-04-24T02:57:43;1;1;
43280;PMS5003;62175;49.416;8.690;2023-04-24T03:00:11;2;2;
43280;PMS5003;62175;49.416;8.690;2023-04-24T03:02:38;0;0;
43280;PMS5003;62175;49.416;8.690;2023-04-24T03:05:05;1;1;
43280;PMS5003;62175;49.416;8.690;2023-04-24T03:07:33;1;1;
43280;PMS5003;62175;49.416;8.690;2023-04-24T03:10:00;1;0;
43280;PMS5003;62175;49.416;8.690;2023-04-24T03:12:27;0;0;
43280;PMS5003;62175;49.416;8.690;2023-04-24T03:14:54;1;1;
43280;PMS5003;62175;49.416;8.690;2023-04-24T03:17:22;1;1;
43280;PMS5003;62175;49.416;8.690;2023-04-24T03:19:48;3;2;
43280;PMS5003;62175;49.416;8.690;2023-04-24T03:22:16;3;3;
43280;PMS5003;62175;49.416;8.690;2023-04-24T03:24:43;2;2;
43280;PMS5003;62175;49.416;8.690;2023-04-24T03:27:10;2;2;
43280;PMS5003;62175;49.416;8.690;2023-04-24T03:29:37;3;3;
43280;PMS5003;62175;49.416;8.690;2023-04-24T03:32:04;3;3;
43280;PMS5003;62175;49.416;8.690;2023-04-24T03:34:31;2;2;
43280;PMS5003;62175;49.416;8.690;2023-04-24T03:36:58;3;3;
43280;PMS5003;62175;49.416;8.690;2023-04-24T03:39:25;1;1;
43280;PMS5003;62175;49.416;8.690;2023-04-24T03:41:52;2;2;
43280;PMS5003;62175;49.416;8.690;2023-04-24T03:44:20;2;2;
43280;PMS5003;62175;49.416;8.690;2023-04-24T03:46:47;1;1;
43280;PMS5003;62175;49.416;8.690;2023-04-24T03:49:14;1;1;
43280;PMS5003;62175;49.416;8.690;2023-04-24T03:51:41;3;3;
43280;PMS5003;62175;49.416;8.690;2023-04-24T03:54:08;2;2;
43280;PMS5003;62175;49.416;8.690;2023-04-24T03:56:35;4;4;
43280;PMS5003;62175;49.416;8.690;2023-04-24T03:59:02;3;3;
43280;PMS5003;62175;49.416;8.690;2023-04-24T04:01:29;3;3;
43280;PMS5003;62175;49.416;8.690;2023-04-24T04:03:56;3;3;
43280;PMS5003;62175;49.416;8.690;2023-04-24T04:06:23;1;1;
43280;PMS5003;62175;49.416;8.690;2023-04-24T04:08:50;2;2;
43280;PMS5003;62175;49.416;8.690;2023-04-24T04:11:17;3;3;
43280;PMS5003;62175;49.416;8.690;2023-04-24T04:13:44;2;2;
43280;PMS5003;62175;49.416;8.690;2023-04-24T04:16:12;2;2;
43280;PMS5003;62175;49.416;8.690;2023-04-24T04:18:39;2;2;
43280;PMS5003;62175;49.416;8.690;2023-04-24T04:21:06;3;2;
43280;PMS5003;62175;49.416;8.690;2023-04-24T04:23:33;3;3;
43280;PMS5003;62175;49.416;8.690;2023-04-24T04:26:00;2;2;
43280;PMS5003;62175;49.416;8.690;2023-04-24T04:28:27;1;1;
43280;PMS5003;62175;49.416;8.690;2023-04-24T04:30:54;3;3;
43280;PMS5003;62175;49.416;8.690;2023-04-24T04:33:21;4;4;
43280;PMS5003;62175;49.416;8.690;2023-04-24T04:35:48;3;3;
43280;PMS5003;62175;49.416;8.690;2023-04-24T04:38:15;4;4;
43280;PMS5003;62175;49.416;8.690;2023-04-24T04:40:43;4;3;
43280;PMS5003;62175;49.416;8.690;2023-04-24T04:43:10;4;3;
43280;PMS5003;62175;49.416;8.690;2023-04-24T04:45:37;3;3;
43280;PMS5003;62175;49.416;8.690;2023-04-24T04:48:04;3;3;
43280;PMS5003;62175;49.416;8.690;2023-04-24T04:50:31;4;4;
43280;PMS5003;62175;49.416;8.690;2023-04-24T04:52:58;3;3;
43280;PMS5003;62175;49.416;8.690;2023-04-24T04:55:26;2;2;
43280;PMS5003;62175;49.416;8.690;2023-04-24T04:57:53;3;2;
43280;PMS5003;62175;49.416;8.690;2023-04-24T05:00:20;5;4;
43280;PMS5003;62175;49.416;8.690;2023-04-24T05:02:47;4;4;
43280;PMS5003;62175;49.416;8.690;2023-04-24T05:05:15;3;3;
43280;PMS5003;62175;49.416;8.690;2023-04-24T05:07:42;3;3;
43280;PMS5003;62175;49.416;8.690;2023-04-24T05:10:09;3;3;
43280;PMS5003;62175;49.416;8.690;2023-04-24T05:12:37;6;6;
43280;PMS5003;62175;49.416;8.690;2023-04-24T05:15:04;5;5;
43280;PMS5003;62175;49.416;8.690;2023-04-24T05:17:32;5;5;
43280;PMS5003;62175;49.416;8.690;2023-04-24T05:19:59;8;6;
43280;PMS5003;62175;49.416;8.690;2023-04-24T05:22:26;4;4;
43280;PMS5003;62175;49.416;8.690;2023-04-24T05:24:53;4;4;
43280;PMS5003;62175;49.416;8.690;2023-04-24T05:27:20;4;4;
43280;PMS5003;62175;49.416;8.690;2023-04-24T05:29:48;6;5;
43280;PMS5003;62175;49.416;8.690;2023-04-24T05:32:15;3;3;
43280;PMS5003;62175;49.416;8.690;2023-04-24T05:34:41;5;5;
43280;PMS5003;62175;49.416;8.690;2023-04-24T05:37:09;5;5;
43280;PMS5003;62175;49.416;8.690;2023-04-24T05:39:36;4;4;
43280;PMS5003;62175;49.416;8.690;2023-04-24T05:42:03;6;4;
43280;PMS5003;62175;49.416;8.690;2023-04-24T05:44:30;4;3;
43280;PMS5003;62175;49.416;8.690;2023-04-24T05:46:57;4;4;
43280;PMS5003;62175;49.416;8.690;2023-04-24T05:49:24;3;3;
43280;PMS5003;62175;49.416;8.690;2023-04-24T05:51:51;4;4;
43280;PMS5003;62175;49.416;8.690;2023-04-24T05:54:18;6;5;
43280;PMS5003;62175;49.416;8.690;2023-04-24T05:56:46;7;6;
43280;PMS5003;62175;49.416;8.690;2023-04-24T05:59:12;6;5;
43280;PMS5003;62175;49.416;8.690;2023-04-24T06:01:40;5;5;
43280;PMS5003;62175;49.416;8.690;2023-04-24T06:04:07;6;6;
43280;PMS5003;62175;49.416;8.690;2023-04-24T06:06:34;7;7;
43280;PMS5003;62175;49.416;8.690;2023-04-24T06:09:01;6;6;
43280;PMS5003;62175;49.416;8.690;2023-04-24T06:11:29;7;7;
43280;PMS5003;62175;49.416;8.690;2023-04-24T06:13:56;8;7;
43280;PMS5003;62175;49.416;8.690;2023-04-24T06:16:23;5;5;
43280;PMS5003;62175;49.416;8.690;2023-04-24T06:18:50;5;5;
43280;PMS5003;62175;49.416;8.690;2023-04-24T06:21:17;8;7;
43280;PMS5003;62175;49.416;8.690;2023-04-24T06:23:44;10;10;
43280;PMS5003;62175;49.416;8.690;2023-04-24T06:26:11;5;5;
43280;PMS5003;62175;49.416;8.690;2023-04-24T06:28:38;5;5;
43280;PMS5003;62175;49.416;8.690;2023-04-24T06:31:05;7;7;
43280;PMS5003;62175;49.416;8.690;2023-04-24T06:33:33;6;6;
43280;PMS5003;62175;49.416;8.690;2023-04-24T06:36:00;5;5;
43280;PMS5003;62175;49.416;8.690;2023-04-24T06:38:27;8;7;
43280;PMS5003;62175;49.416;8.690;2023-04-24T06:40:55;6;6;
43280;PMS5003;62175;49.416;8.690;2023-04-24T06:43:22;6;6;
43280;PMS5003;62175;49.416;8.690;2023-04-24T06:45:50;8;8;
43280;PMS5003;62175;49.416;8.690;2023-04-24T06:48:17;6;5;
43280;PMS5003;62175;49.416;8.690;2023-04-24T06:50:44;6;6;
43280;PMS5003;62175;49.416;8.690;2023-04-24T06:53:11;7;7;
43280;PMS5003;62175;49.416;8.690;2023-04-24T06:55:38;6;5;
43280;PMS5003;62175;49.416;8.690;2023-04-24T06:58:05;5;5;
43280;PMS5003;62175;49.416;8.690;2023-04-24T07:00:32;5;5;
43280;PMS5003;62175;49.416;8.690;2023-04-24T07:02:59;4;4;
43280;PMS5003;62175;49.416;8.690;2023-04-24T07:05:26;5;5;
43280;PMS5003;62175;49.416;8.690;2023-04-24T07:07:54;9;8;
43280;PMS5003;62175;49.416;8.690;2023-04-24T07:10:20;6;5;
43280;PMS5003;62175;49.416;8.690;2023-04-24T07:12:48;4;3;
43280;PMS5003;62175;49.416;8.690;2023-04-24T07:15:15;1;1;
43280;PMS5003;62175;49.416;8.690;2023-04-24T07:17:42;3;3;
43280;PMS5003;62175;49.416;8.690;2023-04-24T07:20:09;2;1;
43280;PMS5003;62175;49.416;8.690;2023-04-24T07:22:41;3;3;
43280;PMS5003;62175;49.416;8.690;2023-04-24T07:25:09;2;2;
43280;PMS5003;62175;49.416;8.690;2023-04-24T07:27:37;3;2;
43280;PMS5003;62175;49.416;8.690;2023-04-24T07:30:04;4;2;
43280;PMS5003;62175;49.416;8.690;2023-04-24T07:32:33;2;2;
43280;PMS5003;62175;49.416;8.690;2023-04-24T07:35:03;2;2;
43280;PMS5003;62175;49.416;8.690;2023-04-24T07:37:30;2;1;
43280;PMS5003;62175;49.416;8.690;2023-04-24T07:39:57;2;2;
43280;PMS5003;62175;49.416;8.690;2023-04-24T07:42:25;1;1;
43280;PMS5003;62175;49.416;8.690;2023-04-24T07:44:53;2;2;
43280;PMS5003;62175;49.416;8.690;2023-04-24T07:47:21;1;1;
43280;PMS5003;62175;49.416;8.690;2023-04-24T07:49:48;1;1;
43280;PMS5003;62175;49.416;8.690;2023-04-24T07:52:15;3;2;
43280;PMS5003;62175;49.416;8.690;2023-04-24T07:54:42;3;3;
43280;PMS5003;62175;49.416;8.690;2023-04-24T07:57:09;5;5;
43280;PMS5003;62175;49.416;8.690;2023-04-24T07:59:36;4;4;
43280;PMS5003;62175;49.416;8.690;2023-04-24T08:02:04;3;3;
43280;PMS5003;62175;49.416;8.690;2023-04-24T08:04:31;2;2;
43280;PMS5003;62175;49.416;8.690;2023-04-24T08:06:58;2;2;
43280;PMS5003;62175;49.416;8.690;2023-04-24T08:09:25;4;4;
43280;PMS5003;62175;49.416;8.690;2023-04-24T08:11:52;5;4;
43280;PMS5003;62175;49.416;8.690;2023-04-24T08:14:19;2;2;
43280;PMS5003;62175;49.416;8.690;2023-04-24T08:16:46;4;4;
43280;PMS5003;62175;49.416;8.690;2023-04-24T08:19:13;4;4;
43280;PMS5003;62175;49.416;8.690;2023-04-24T08:21:41;5;5;
43280;PMS5003;62175;49.416;8.690;2023-04-24T08:24:08;3;3;
43280;PMS5003;62175;49.416;8.690;2023-04-24T08:26:35;5;5;
43280;PMS5003;62175;49.416;8.690;2023-04-24T08:29:02;4;4;
43280;PMS5003;62175;49.416;8.690;2023-04-24T08:31:29;3;3;
43280;PMS5003;62175;49.416;8.690;2023-04-24T08:33:56;4;4;
43280;PMS5003;62175;49.416;8.690;2023-04-24T08:36:23;4;4;
43280;PMS5003;62175;49.416;8.690;2023-04-24T08:38:51;6;4;
43280;PMS5003;62175;49.416;8.690;2023-04-24T08:41:18;3;3;
43280;PMS5003;62175;49.416;8.690;2023-04-24T08:43:45;4;4;
43280;PMS5003;62175;49.416;8.690;2023-04-24T08:46:13;4;4;
43280;PMS5003;62175;49.416;8.690;2023-04-24T08:48:42;4;4;
43280;PMS5003;62175;49.416;8.690;2023-04-24T08:51:09;6;4;
43280;PMS5003;62175;49.416;8.690;2023-04-24T08:53:37;4;4;
43280;PMS5003;62175;49.416;8.690;2023-04-24T08:56:05;3;3;
43280;PMS5003;62175;49.416;8.690;2023-04-24T08:58:33;4;4;
43280;PMS5003;62175;49.416;8.690;2023-04-24T09:01:01;4;4;
43280;PMS5003;62175;49.416;8.690;2023-04-24T09:03:29;4;4;
43280;PMS5003;62175;49.416;8.690;2023-04-24T09:05:59;6;5;
43280;PMS5003;62175;49.416;8.690;2023-04-24T09:08:28;4;4;
43280;PMS5003;62175;49.416;8.690;2023-04-24T09:10:57;3;3;
43280;PMS5003;62175;49.416;8.690;2023-04-24T09:13:24;4;4;
43280;PMS5003;62175;49.416;8.690;2023-04-24T09:15:53;4;4;
43280;PMS5003;62175;49.416;8.690;2023-04-24T09:18:20;5;4;
43280;PMS5003;62175;49.416;8.690;2023-04-24T09:20:57;4;4;
43280;PMS5003;62175;49.416;8.690;2023-04-24T09:23:25;6;5;
43280;PMS5003;62175;49.416;8.690;2023-04-24T09:25:54;3;3;
43280;PMS5003;62175;49.416;8.690;2023-04-24T09:28:25;5;5;
43280;PMS5003;62175;49.416;8.690;2023-04-24T09:31:03;4;4;
43280;PMS5003;62175;49.416;8.690;2023-04-24T09:33:32;4;4;
43280;PMS5003;62175;49.416;8.690;2023-04-24T09:35:59;9;6;
43280;PMS5003;62175;49.416;8.690;2023-04-24T09:38:30;4;4;
43280;PMS5003;62175;49.416;8.690;2023-04-24T09:40:59;4;4;
43280;PMS5003;62175;49.416;8.690;2023-04-24T09:43:27;4;4;
43280;PMS5003;62175;49.416;8.690;2023-04-24T09:45:55;3;3;
43280;PMS5003;62175;49.416;8.690;2023-04-24T09:48:30;3;3;
43280;PMS5003;62175;49.416;8.690;2023-04-24T09:50:59;5;4;
43280;PMS5003;62175;49.416;8.690;2023-04-24T09:53:28;3;3;
43280;PMS5003;62175;49.416;8.690;2023-04-24T09:56:02;6;5;
43280;PMS5003;62175;49.416;8.690;2023-04-24T09:58:35;4;4;
43280;PMS5003;62175;49.416;8.690;2023-04-24T10:01:04;5;4;
43280;PMS5003;62175;49.416;8.690;2023-04-24T10:03:32;5;4;
43280;PMS5003;62175;49.416;8.690;2023-04-24T10:06:00;4;4;
43280;PMS5003;62175;49.416;8.690;2023-04-24T10:08:32;6;6;
43280;PMS5003;62175;49.416;8.690;2023-04-24T10:11:00;4;4;
43280;PMS5003;62175;49.416;8.690;2023-04-24T10:13:28;6;6;
43280;PMS5003;62175;49.416;8.690;2023-04-24T10:15:56;6;6;
43280;PMS5003;62175;49.416;8.690;2023-04-24T10:18:26;6;6;
43280;PMS5003;62175;49.416;8.690;2023-04-24T10:20:53;4;4;
43280;PMS5003;62175;49.416;8.690;2023-04-24T10:23:21;5;5;
43280;PMS5003;62175;49.416;8.690;2023-04-24T11:01:25;4;4;
43280;PMS5003;62175;49.416;8.690;2023-04-24T11:03:54;3;3;
43280;PMS5003;62175;49.416;8.690;2023-04-24T11:06:28;5;5;
43280;PMS5003;62175;49.416;8.690;2023-04-24T11:08:58;3;3;
43280;PMS5003;62175;49.416;8.690;2023-04-24T11:11:29;5;4;
43280;PMS5003;62175;49.416;8.690;2023-04-24T11:14:05;4;3;
43280;PMS5003;62175;49.416;8.690;2023-04-24T11:16:34;5;5;
43280;PMS5003;62175;49.416;8.690;2023-04-24T11:19:05;6;6;
43280;PMS5003;62175;49.416;8.690;2023-04-24T11:21:42;7;5;
43280;PMS5003;62175;49.416;8.690;2023-04-24T11:25:15;6;6;
43280;PMS5003;62175;49.416;8.690;2023-04-24T11:27:42;5;5;
43280;PMS5003;62175;49.416;8.690;2023-04-24T11:30:11;6;6;
43280;PMS5003;62175;49.416;8.690;2023-04-24T11:32:43;7;5;
43280;PMS5003;62175;49.416;8.690;2023-04-24T11:35:14;3;3;
43280;PMS5003;62175;49.416;8.690;2023-04-24T11:37:42;9;9;
43280;PMS5003;62175;49.416;8.690;2023-04-24T11:40:12;6;5;
43280;PMS5003;62175;49.416;8.690;2023-04-24T11:42:41;4;4;
43280;PMS5003;62175;49.416;8.690;2023-04-24T11:45:09;4;4;
43280;PMS5003;62175;49.416;8.690;2023-04-24T11:47:38;6;6;
43280;PMS5003;62175;49.416;8.690;2023-04-24T11:50:07;3;3;
43280;PMS5003;62175;49.416;8.690;2023-04-24T11:52:36;4;4;
43280;PMS5003;62175;49.416;8.690;2023-04-24T11:55:06;5;5;
43280;PMS5003;62175;49.416;8.690;2023-04-24T11:57:34;8;7;
43280;PMS5003;62175;49.416;8.690;2023-04-24T12:00:02;4;4;
43280;PMS5003;62175;49.416;8.690;2023-04-24T12:02:30;4;4;
43280;PMS5003;62175;49.416;8.690;2023-04-24T12:04:57;8;7;
43280;PMS5003;62175;49.416;8.690;2023-04-24T12:07:24;6;6;
43280;PMS5003;62175;49.416;8.690;2023-04-24T12:09:54;7;6;
43280;PMS5003;62175;49.416;8.690;2023-04-24T12:12:24;9;8;
43280;PMS5003;62175;49.416;8.690;2023-04-24T12:14:53;6;6;
43280;PMS5003;62175;49.416;8.690;2023-04-24T12:17:25;6;6;
43280;PMS5003;62175;49.416;8.690;2023-04-24T12:19:57;6;6;
43280;PMS5003;62175;49.416;8.690;2023-04-24T12:22:25;8;7;
43280;PMS5003;62175;49.416;8.690;2023-04-24T12:24:56;5;5;
43280;PMS5003;62175;49.416;8.690;2023-04-24T12:27:25;7;7;
43280;PMS5003;62175;49.416;8.690;2023-04-24T12:29:52;7;7;
43280;PMS5003;62175;49.416;8.690;2023-04-24T12:32:23;8;7;
43280;PMS5003;62175;49.416;8.690;2023-04-24T12:34:51;8;6;
43280;PMS5003;62175;49.416;8.690;2023-04-24T12:37:20;5;5;
43280;PMS5003;62175;49.416;8.690;2023-04-24T12:40:05;5;5;
43280;PMS5003;62175;49.416;8.690;2023-04-24T12:42:35;7;7;
43280;PMS5003;62175;49.416;8.690;2023-04-24T12:45:08;7;7;
43280;PMS5003;62175;49.416;8.690;2023-04-24T12:47:35;6;6;
43280;PMS5003;62175;49.416;8.690;2023-04-24T12:50:02;6;6;
43280;PMS5003;62175;49.416;8.690;2023-04-24T12:52:30;6;5;
43280;PMS5003;62175;49.416;8.690;2023-04-24T12:54:57;8;7;
43280;PMS5003;62175;49.416;8.690;2023-04-24T12:57:27;7;6;
43280;PMS5003;62175;49.416;8.690;2023-04-24T12:59:56;7;6;
43280;PMS5003;62175;49.416;8.690;2023-04-24T13:02:25;5;5;
43280;PMS5003;62175;49.416;8.690;2023-04-24T13:04:53;6;6;
43280;PMS5003;62175;49.416;8.690;2023-04-24T13:07:20;7;6;
43280;PMS5003;62175;49.416;8.690;2023-04-24T13:09:48;6;5;
43280;PMS5003;62175;49.416;8.690;2023-04-24T13:12:17;6;6;
43280;PMS5003;62175;49.416;8.690;2023-04-24T13:14:45;6;5;
43280;PMS5003;62175;49.416;8.690;2023-04-24T13:17:14;7;7;
43280;PMS5003;62175;49.416;8.690;2023-04-24T13:19:41;6;5;
43280;PMS5003;62175;49.416;8.690;2023-04-24T13:22:10;8;5;
43280;PMS5003;62175;49.416;8.690;2023-04-24T13:24:38;7;7;
43280;PMS5003;62175;49.416;8.690;2023-04-24T13:27:06;7;6;
43280;PMS5003;62175;49.416;8.690;2023-04-24T13:29:33;8;7;
43280;PMS5003;62175;49.416;8.690;2023-04-24T13:32:00;7;5;
43280;PMS5003;62175;49.416;8.690;2023-04-24T13:34:29;7;6;
43280;PMS5003;62175;49.416;8.690;2023-04-24T13:36:57;9;8;
43280;PMS5003;62175;49.416;8.690;2023-04-24T13:39:25;8;7;
43280;PMS5003;62175;49.416;8.690;2023-04-24T13:41:52;8;7;
43280;PMS5003;62175;49.416;8.690;2023-04-24T13:44:20;7;6;
43280;PMS5003;62175;49.416;8.690;2023-04-24T13:46:48;6;6;
43280;PMS5003;62175;49.416;8.690;2023-04-24T13:49:16;7;6;
43280;PMS5003;62175;49.416;8.690;2023-04-24T13:51:44;6;5;
43280;PMS5003;62175;49.416;8.690;2023-04-24T13:54:11;7;6;
43280;PMS5003;62175;49.416;8.690;2023-04-24T13:56:38;5;5;
43280;PMS5003;62175;49.416;8.690;2023-04-24T13:59:06;6;6;
43280;PMS5003;62175;49.416;8.690;2023-04-24T14:01:33;8;8;
43280;PMS5003;62175;49.416;8.690;2023-04-24T14:04:00;7;7;
43280;PMS5003;62175;49.416;8.690;2023-04-24T14:06:27;8;7;
43280;PMS5003;62175;49.416;8.690;2023-04-24T14:08:54;6;6;
43280;PMS5003;62175;49.416;8.690;2023-04-24T14:11:21;7;7;
43280;PMS5003;62175;49.416;8.690;2023-04-24T14:13:48;9;7;
43280;PMS5003;62175;49.416;8.690;2023-04-24T14:16:15;7;6;
43280;PMS5003;62175;49.416;8.690;2023-04-24T14:18:43;5;5;
43280;PMS5003;62175;49.416;8.690;2023-04-24T14:21:10;7;7;
43280;PMS5003;62175;49.416;8.690;2023-04-24T14:23:37;8;7;
43280;PMS5003;62175;49.416;8.690;2023-04-24T14:26:04;7;6;
43280;PMS5003;62175;49.416;8.690;2023-04-24T14:28:32;6;6;
43280;PMS5003;62175;49.416;8.690;2023-04-24T14:30:59;5;5;
43280;PMS5003;62175;49.416;8.690;2023-04-24T14:33:26;5;5;
43280;PMS5003;62175;49.416;8.690;2023-04-24T14:35:53;9;6;
43280;PMS5003;62175;49.416;8.690;2023-04-24T14:38:21;8;8;
43280;PMS5003;62175;49.416;8.690;2023-04-24T14:40:48;7;7;
43280;PMS5003;62175;49.416;8.690;2023-04-24T14:43:16;7;7;
43280;PMS5003;62175;49.416;8.690;2023-04-24T14:45:43;7;6;
43280;PMS5003;62175;49.416;8.690;2023-04-24T14:48:10;7;7;
43280;PMS5003;62175;49.416;8.690;2023-04-24T14:50:37;7;6;
43280;PMS5003;62175;49.416;8.690;2023-04-24T14:53:04;7;6;
43280;PMS5003;62175;49.416;8.690;2023-04-24T14:55:32;8;7;
43280;PMS5003;62175;49.416;8.690;2023-04-24T14:57:59;7;7;
43280;PMS5003;62175;49.416;8.690;2023-04-24T15:00:26;7;7;
43280;PMS5003;62175;49.416;8.690;2023-04-24T15:02:53;9;8;
43280;PMS5003;62175;49.416;8.690;2023-04-24T15:05:20;7;6;
43280;PMS5003;62175;49.416;8.690;2023-04-24T15:07:47;9;8;
43280;PMS5003;62175;49.416;8.690;2023-04-24T15:10:14;8;7;
43280;PMS5003;62175;49.416;8.690;2023-04-24T15:12:42;12;11;
43280;PMS5003;62175;49.416;8.690;2023-04-24T15:15:09;10;8;
43280;PMS5003;62175;49.416;8.690;2023-04-24T15:17:36;8;8;
43280;PMS5003;62175;49.416;8.690;2023-04-24T15:20:04;8;8;
43280;PMS5003;62175;49.416;8.690;2023-04-24T15:22:32;8;8;
43280;PMS5003;62175;49.416;8.690;2023-04-24T15:24:59;9;8;
43280;PMS5003;62175;49.416;8.690;2023-04-24T15:27:26;9;8;
43280;PMS5003;62175;49.416;8.690;2023-04-24T15:29:53;9;9;
43280;PMS5003;62175;49.416;8.690;2023-04-24T15:32:21;8;8;
43280;PMS5003;62175;49.416;8.690;2023-04-24T15:34:48;9;9;
43280;PMS5003;62175;49.416;8.690;2023-04-24T15:37:15;10;8;
43280;PMS5003;62175;49.416;8.690;2023-04-24T15:39:43;12;10;
43280;PMS5003;62175;49.416;8.690;2023-04-24T15:42:11;11;11;
43280;PMS5003;62175;49.416;8.690;2023-04-24T15:44:38;10;9;
43280;PMS5003;62175;49.416;8.690;2023-04-24T15:47:05;9;7;
43280;PMS5003;62175;49.416;8.690;2023-04-24T15:49:33;9;9;
43280;PMS5003;62175;49.416;8.690;2023-04-24T15:52:00;7;6;
43280;PMS5003;62175;49.416;8.690;2023-04-24T15:54:27;7;5;
43280;PMS5003;62175;49.416;8.690;2023-04-24T15:56:54;7;7;
43280;PMS5003;62175;49.416;8.690;2023-04-24T15:59:21;9;9;
43280;PMS5003;62175;49.416;8.690;2023-04-24T16:01:49;7;7;
43280;PMS5003;62175;49.416;8.690;2023-04-24T16:04:16;9;8;
43280;PMS5003;62175;49.416;8.690;2023-04-24T16:06:44;7;7;
43280;PMS5003;62175;49.416;8.690;2023-04-24T16:09:11;8;8;
43280;PMS5003;62175;49.416;8.690;2023-04-24T16:11:38;8;8;
43280;PMS5003;62175;49.416;8.690;2023-04-24T16:14:05;5;5;
43280;PMS5003;62175;49.416;8.690;2023-04-24T16:16:32;6;6;
43280;PMS5003;62175;49.416;8.690;2023-04-24T16:16:33;6;6;
43280;PMS5003;62175;49.416;8.690;2023-04-24T16:19:00;7;7;
43280;PMS5003;62175;49.416;8.690;2023-04-24T16:21:27;6;5;
43280;PMS5003;62175;49.416;8.690;2023-04-24T16:23:54;5;5;
43280;PMS5003;62175;49.416;8.690;2023-04-24T16:26:21;6;6;
43280;PMS5003;62175;49.416;8.690;2023-04-24T16:28:48;5;4;
43280;PMS5003;62175;49.416;8.690;2023-04-24T16:31:15;4;4;
43280;PMS5003;62175;49.416;8.690;2023-04-24T16:33:42;4;4;
43280;PMS5003;62175;49.416;8.690;2023-04-24T16:36:10;4;4;
43280;PMS5003;62175;49.416;8.690;2023-04-24T16:38:37;4;4;
43280;PMS5003;62175;49.416;8.690;2023-04-24T16:41:04;4;4;
43280;PMS5003;62175;49.416;8.690;2023-04-24T16:43:31;6;5;
43280;PMS5003;62175;49.416;8.690;2023-04-24T16:45:58;4;4;
43280;PMS5003;62175;49.416;8.690;2023-04-24T16:48:25;4;4;
43280;PMS5003;62175;49.416;8.690;2023-04-24T16:50:53;5;5;
43280;PMS5003;62175;49.416;8.690;2023-04-24T16:53:20;6;6;
43280;PMS5003;62175;49.416;8.690;2023-04-24T16:55:47;5;5;
43280;PMS5003;62175;49.416;8.690;2023-04-24T16:58:14;6;6;
43280;PMS5003;62175;49.416;8.690;2023-04-24T17:00:42;4;4;
43280;PMS5003;62175;49.416;8.690;2023-04-24T17:03:09;6;6;
43280;PMS5003;62175;49.416;8.690;2023-04-24T17:05:37;7;6;
43280;PMS5003;62175;49.416;8.690;2023-04-24T17:08:04;6;5;
43280;PMS5003;62175;49.416;8.690;2023-04-24T17:10:31;7;6;
43280;PMS5003;62175;49.416;8.690;2023-04-24T17:12:59;6;5;
43280;PMS5003;62175;49.416;8.690;2023-04-24T17:15:26;8;7;
43280;PMS5003;62175;49.416;8.690;2023-04-24T17:17:55;4;3;
43280;PMS5003;62175;49.416;8.690;2023-04-24T17:20:23;5;4;
43280;PMS5003;62175;49.416;8.690;2023-04-24T17:22:57;4;4;
43280;PMS5003;62175;49.416;8.690;2023-04-24T17:25:24;6;6;
43280;PMS5003;62175;49.416;8.690;2023-04-24T17:27:51;6;5;